Poznan, Poland
Current Conditions -  °F | °C
As of 6:00 PM on Saturday 25 Oct 2014 (Local Time) from EPPO Reporting Station
Haze Haze  
Wind Chill: 34°   Ceiling: 1100
Heat Index: 39°   Visibility: 3mi
Dew Point: 36°   Wind: 7mph
Humidity: 87%   Direction: 140°SE
Pressure: 30.21"   Gusts: NA
Location:  52.4°N, 16.9°E
Report Text: EPPO 251600Z 14006KT 110V170 5000 BR BKN011 04/02 Q1023
Loading
Personal Weather Stations






























Interactive Weather Map
Tropical Storm Tracking
New forecast layout! Learn more

10-Day Weather Forecast

Advertisements
Track Severe Weather on mobile